Time;durP1;ratioP1;P1;durP2;ratioP2;P2;SDS_P1;SDS_P2;PMS_P1;PMS_P2;Temp;Humidity;BMP_temperature;BMP_pressure;BME280_temperature;BME280_humidity;BME280_pressure;Samples;Min_cycle;Max_cycle;Signal;HPM_P1;HPM_P2
2022/01/13 00:01:22;;;;;;;1999.90;999.90;;;4.40;99.90;;;;;;5096192;28;20177;-78
2022/01/13 00:03:48;;;;;;;1999.90;999.90;;;4.40;99.90;;;;;;5114549;28;20400;-78
2022/01/13 00:06:14;;;;;;;1999.90;999.90;;;4.30;99.90;;;;;;5114096;28;20204;-78
2022/01/13 00:08:39;;;;;;;1999.90;999.90;;;4.20;99.90;;;;;;5114374;28;20172;-78
2022/01/13 00:11:05;;;;;;;1999.90;999.90;;;4.20;99.90;;;;;;5114491;28;20260;-78
2022/01/13 00:13:44;;;;;;;1999.90;999.90;;;4.10;99.90;;;;;;5114337;28;20791;-77
2022/01/13 00:18:50;;;;;;;1999.90;999.90;;;4.20;99.90;;;;;;5114130;28;20197;-77
2022/01/13 00:23:51;;;;;;;1999.90;999.90;;;4.00;99.90;;;;;;5114037;28;20170;-77
2022/01/13 00:26:23;;;;;;;1999.90;999.90;;;3.90;99.90;;;;;;5113627;28;20186;-77
2022/01/13 00:28:51;;;;;;;1999.90;999.90;;;3.90;99.90;;;;;;5113622;28;20173;-77
2022/01/13 00:31:24;;;;;;;1999.90;999.90;;;3.90;99.90;;;;;;5113308;28;20165;-77
2022/01/13 00:33:54;;;;;;;1999.90;999.90;;;3.90;99.90;;;;;;5114033;28;20200;-77
2022/01/13 00:36:24;;;;;;;1999.90;999.90;;;3.90;99.90;;;;;;5113453;28;20197;-77
2022/01/13 00:38:49;;;;;;;1999.90;999.90;;;3.90;99.90;;;;;;5113658;28;20211;-77
2022/01/13 00:41:15;;;;;;;1999.90;999.90;;;4.00;99.90;;;;;;5095436;28;20173;-77
2022/01/13 00:43:42;;;;;;;1999.90;999.90;;;4.00;99.90;;;;;;5113659;28;20248;-77
2022/01/13 00:46:09;;;;;;;1999.90;999.90;;;3.90;99.90;;;;;;5113156;28;20204;-77
2022/01/13 00:48:35;;;;;;;1999.90;999.90;;;4.00;99.90;;;;;;5095429;28;20173;-77
2022/01/13 00:51:01;;;;;;;1999.90;999.90;;;3.90;99.90;;;;;;5113507;28;20176;-77
2022/01/13 00:53:27;;;;;;;1999.90;999.90;;;3.80;99.90;;;;;;5113460;28;20173;-77
2022/01/13 00:55:59;;;;;;;1999.90;999.90;;;3.80;99.90;;;;;;5094809;28;20577;-77
2022/01/13 00:58:30;;;;;;;1999.90;999.90;;;3.80;99.90;;;;;;5113381;28;20396;-77
2022/01/13 01:00:57;;;;;;;1999.90;999.90;;;3.80;99.90;;;;;;5113344;28;20170;-77
2022/01/13 01:03:24;;;;;;;1999.90;999.90;;;3.90;99.90;;;;;;5113284;28;20168;-77
2022/01/13 01:05:49;;;;;;;1999.90;999.90;;;3.80;99.90;;;;;;5112805;28;20281;-77
2022/01/13 01:08:15;;;;;;;1999.90;999.90;;;3.80;99.90;;;;;;5113187;28;20201;-77
2022/01/13 01:10:42;;;;;;;1999.90;999.90;;;3.90;99.90;;;;;;5113255;28;20514;-77
2022/01/13 01:13:13;;;;;;;1999.90;999.90;;;3.90;99.90;;;;;;5113104;28;20403;-77
2022/01/13 01:15:44;;;;;;;1999.90;999.90;;;3.90;99.90;;;;;;5112582;28;20258;-77
2022/01/13 01:18:23;;;;;;;1999.90;999.90;;;4.00;99.90;;;;;;5113010;28;20595;-77
2022/01/13 01:21:04;;;;;;;1999.90;999.90;;;4.00;99.90;;;;;;5113042;28;20161;-77
2022/01/13 01:23:40;;;;;;;1999.90;999.90;;;3.90;99.90;;;;;;5112986;28;20165;-77
2022/01/13 01:26:23;;;;;;;1999.90;999.90;;;3.70;99.90;;;;;;5112570;28;20193;-77
2022/01/13 01:29:37;;;;;;;1999.90;999.90;;;3.70;99.90;;;;;;5112823;28;20192;-77
2022/01/13 01:31:45;;;;;;;1999.90;999.90;;;3.60;99.90;;;;;;5104332;28;20185;-77
2022/01/13 01:36:41;;;;;;;1999.90;999.90;;;3.70;99.90;;;;;;5112586;28;20984;-77
2022/01/13 01:39:08;;;;;;;1999.90;999.90;;;3.80;99.90;;;;;;5112669;28;20170;-77
2022/01/13 01:41:43;;;;;;;1999.90;999.90;;;3.70;99.90;;;;;;5112525;28;20525;-77
2022/01/13 01:44:19;;;;;;;1999.90;999.90;;;3.70;99.90;;;;;;5112280;28;20193;-77
2022/01/13 01:46:46;;;;;;;1999.90;999.90;;;3.70;99.90;;;;;;5112441;28;20201;-77
2022/01/13 01:49:22;;;;;;;1999.90;999.90;;;3.80;99.90;;;;;;5112580;28;20165;-77
2022/01/13 01:51:51;;;;;;;1999.90;999.90;;;3.80;99.90;;;;;;5112497;28;20165;-77
2022/01/13 01:54:17;;;;;;;1999.90;999.90;;;3.80;99.90;;;;;;5093965;28;20561;-77
2022/01/13 01:56:43;;;;;;;1999.90;999.90;;;3.80;99.90;;;;;;5112316;28;20222;-77
2022/01/13 01:59:13;;;;;;;1999.90;999.90;;;3.90;99.90;;;;;;5112439;28;20756;-77
2022/01/13 02:01:40;;;;;;;1999.90;999.90;;;3.90;99.90;;;;;;5112434;28;20178;-77
2022/01/13 02:04:06;;;;;;;1999.90;999.90;;;3.80;99.90;;;;;;5112012;28;20169;-77
2022/01/13 02:06:32;;;;;;;1999.90;999.90;;;3.80;99.90;;;;;;5112251;28;20228;-76
2022/01/13 02:08:58;;;;;;;1999.90;999.90;;;3.90;99.90;;;;;;5112623;28;20654;-77
2022/01/13 02:11:26;;;;;;;1999.90;999.90;;;3.90;99.90;;;;;;5112427;28;20169;-76
2022/01/13 02:13:55;;;;;;;1999.90;999.90;;;3.70;99.90;;;;;;5112246;28;20170;-77
2022/01/13 02:18:56;;;;;;;1999.90;999.90;;;3.70;99.90;;;;;;5112302;28;20638;-77
2022/01/13 02:21:25;;;;;;;1999.90;999.90;;;3.70;99.90;;;;;;5112202;28;20162;-77
2022/01/13 02:23:50;;;;;;;1999.90;999.90;;;3.60;99.90;;;;;;5112177;28;20169;-76
2022/01/13 02:26:16;;;;;;;1999.90;999.90;;;3.50;99.90;;;;;;5111901;28;20686;-77
2022/01/13 02:28:43;;;;;;;1999.90;999.90;;;3.40;99.90;;;;;;5112160;28;20173;-77
2022/01/13 02:31:09;;;;;;;1999.90;999.90;;;3.40;99.90;;;;;;5112056;28;20170;-77
2022/01/13 02:33:35;;;;;;;1999.90;999.90;;;3.30;99.90;;;;;;5112070;28;20302;-76
2022/01/13 02:36:02;;;;;;;1999.90;999.90;;;3.30;99.90;;;;;;5111750;28;20193;-76
2022/01/13 02:38:27;;;;;;;1999.90;999.90;;;3.30;99.90;;;;;;5112112;28;20166;-77
2022/01/13 02:40:55;;;;;;;1999.90;999.90;;;3.20;99.90;;;;;;5112120;28;20173;-76
2022/01/13 02:43:21;;;;;;;1999.90;999.90;;;3.10;99.90;;;;;;5112061;28;20165;-77
2022/01/13 02:46:18;;;;;;;1999.90;999.90;;;3.00;99.90;;;;;;5111465;28;20281;-76
2022/01/13 02:48:35;;;;;;;1999.90;999.90;;;3.00;99.90;;;;;;5111403;28;20561;-76
2022/01/13 02:51:02;;;;;;;1999.90;999.90;;;2.80;99.90;;;;;;5111999;28;20166;-77
2022/01/13 02:53:28;;;;;;;1999.90;999.90;;;2.80;99.90;;;;;;5113904;28;20260;-76
2022/01/13 02:55:56;;;;;;;1999.90;999.90;;;2.80;99.90;;;;;;5115332;28;20213;-76
2022/01/13 02:58:23;;;;;;;1999.90;999.90;;;2.80;99.90;;;;;;5115615;28;20164;-77
2022/01/13 03:00:49;;;;;;;1999.90;999.90;;;2.80;99.90;;;;;;5115711;28;20164;-77
2022/01/13 03:03:14;;;;;;;1999.90;999.90;;;2.80;99.90;;;;;;5115788;28;20170;-77
2022/01/13 03:05:40;;;;;;;1999.90;999.90;;;2.70;99.90;;;;;;5115242;28;20193;-77
2022/01/13 03:08:07;;;;;;;1999.90;999.90;;;2.70;99.90;;;;;;5115615;28;20541;-76
2022/01/13 03:10:33;;;;;;;1999.90;999.90;;;2.70;99.90;;;;;;5097326;28;20176;-76
2022/01/13 03:13:00;;;;;;;1999.90;999.90;;;2.70;99.90;;;;;;5115399;28;20170;-76
2022/01/13 03:15:26;;;;;;;1999.90;999.90;;;2.70;99.90;;;;;;5114986;28;20220;-77
2022/01/13 03:17:51;;;;;;;1999.90;999.90;;;2.70;99.90;;;;;;5115427;28;20705;-76
2022/01/13 03:20:17;;;;;;;1999.90;999.90;;;2.80;99.90;;;;;;5115377;28;20197;-77
2022/01/13 03:22:43;;;;;;;1999.90;999.90;;;2.80;99.90;;;;;;5115300;28;20235;-77
2022/01/13 03:25:09;;;;;;;1999.90;999.90;;;2.80;99.90;;;;;;5114933;28;20166;-77
2022/01/13 03:27:36;;;;;;;1999.90;999.90;;;2.80;99.90;;;;;;5115212;28;20189;-76
2022/01/13 03:30:06;;;;;;;1999.90;999.90;;;2.70;99.90;;;;;;5115132;28;20563;-76
2022/01/13 03:32:33;;;;;;;1999.90;999.90;;;2.60;99.90;;;;;;5115142;28;20716;-76
2022/01/13 03:34:59;;;;;;;1999.90;999.90;;;2.60;99.90;;;;;;5114735;28;20166;-76
2022/01/13 03:37:25;;;;;;;1999.90;999.90;;;2.50;99.90;;;;;;5114782;28;20209;-76
2022/01/13 03:39:51;;;;;;;1999.90;999.90;;;2.50;99.90;;;;;;5114895;28;20527;-76
2022/01/13 03:42:17;;;;;;;1999.90;999.90;;;2.50;99.90;;;;;;5096351;28;20244;-76
2022/01/13 03:44:42;;;;;;;1999.90;999.90;;;2.50;99.90;;;;;;5114604;28;20154;-76
2022/01/13 03:47:09;;;;;;;1999.90;999.90;;;2.50;99.90;;;;;;5114646;28;20625;-76
2022/01/13 03:49:35;;;;;;;1999.90;999.90;;;2.50;99.90;;;;;;5114714;28;20166;-76
2022/01/13 03:52:04;;;;;;;1999.90;999.90;;;2.50;99.90;;;;;;5114753;28;20173;-76
2022/01/13 03:54:32;;;;;;;1999.90;999.90;;;2.50;99.90;;;;;;5114395;28;20162;-77
2022/01/13 03:57:36;;;;;;;1999.90;999.90;;;2.50;99.90;;;;;;5114343;28;20589;-76
2022/01/13 04:00:37;;;;;;;1999.90;999.90;;;2.50;99.90;;;;;;5114563;28;20214;-77
2022/01/13 04:03:03;;;;;;;1999.90;999.90;;;2.40;99.90;;;;;;5114597;28;20173;-76
2022/01/13 04:05:28;;;;;;;1999.90;999.90;;;2.50;99.90;;;;;;5112899;28;20278;-76
2022/01/13 04:07:56;;;;;;;1999.90;999.90;;;2.50;99.90;;;;;;5096151;28;20170;-76
2022/01/13 04:10:46;;;;;;;1999.90;999.90;;;2.50;99.90;;;;;;5114416;28;20252;-77
2022/01/13 04:13:32;;;;;;;1999.90;999.90;;;2.40;99.90;;;;;;5114330;28;20546;-77
2022/01/13 04:15:57;;;;;;;1999.90;999.90;;;2.50;99.90;;;;;;5113680;28;20588;-76
2022/01/13 04:18:23;;;;;;;1999.90;999.90;;;2.50;99.90;;;;;;5114268;28;20166;-77
2022/01/13 04:20:49;;;;;;;1999.90;999.90;;;2.50;99.90;;;;;;5114218;28;20533;-77
2022/01/13 04:23:15;;;;;;;1999.90;999.90;;;2.50;99.90;;;;;;5114120;28;20174;-76
2022/01/13 04:25:42;;;;;;;1999.90;999.90;;;2.50;99.90;;;;;;5113976;28;20186;-77
2022/01/13 04:28:08;;;;;;;1999.90;999.90;;;2.50;99.90;;;;;;5114006;28;20177;-76
2022/01/13 04:30:45;;;;;;;1999.90;999.90;;;2.40;99.90;;;;;;5113963;28;20610;-76
2022/01/13 04:33:12;;;;;;;1999.90;999.90;;;2.40;99.90;;;;;;5114008;28;20164;-77
2022/01/13 04:35:38;;;;;;;1999.90;999.90;;;2.40;99.90;;;;;;5113437;28;20224;-77
2022/01/13 04:38:04;;;;;;;1999.90;999.90;;;2.50;99.90;;;;;;5113819;28;20165;-77
2022/01/13 04:40:30;;;;;;;1999.90;999.90;;;2.40;99.90;;;;;;5113648;28;20169;-77
2022/01/13 04:42:56;;;;;;;1999.90;999.90;;;2.40;99.90;;;;;;5113712;28;20253;-77
2022/01/13 04:45:23;;;;;;;1999.90;999.90;;;2.40;99.90;;;;;;5113341;28;20164;-77
2022/01/13 04:47:52;;;;;;;1999.90;999.90;;;2.50;99.90;;;;;;5113480;28;20211;-77
2022/01/13 04:50:21;;;;;;;1999.90;999.90;;;2.50;99.90;;;;;;5095269;28;20662;-77
2022/01/13 04:52:46;;;;;;;1999.90;999.90;;;2.50;99.90;;;;;;5113467;28;20643;-77
2022/01/13 04:55:13;;;;;;;1999.90;999.90;;;2.60;99.90;;;;;;5112950;28;20172;-77
2022/01/13 04:57:40;;;;;;;1999.90;999.90;;;2.60;99.90;;;;;;5113444;28;20166;-77
2022/01/13 05:00:08;;;;;;;1999.90;999.90;;;2.70;99.90;;;;;;5113374;28;20219;-77
2022/01/13 05:02:34;;;;;;;1999.90;999.90;;;2.80;99.90;;;;;;5113387;28;20165;-77
2022/01/13 05:04:59;;;;;;;1999.90;999.90;;;2.90;99.90;;;;;;5113039;28;20218;-77
2022/01/13 05:07:25;;;;;;;1999.90;999.90;;;2.90;99.90;;;;;;5113170;28;20233;-77
2022/01/13 05:09:50;;;;;;;1999.90;999.90;;;2.90;99.90;;;;;;5113156;28;20268;-77
2022/01/13 05:12:17;;;;;;;1999.90;999.90;;;2.80;99.90;;;;;;5113206;28;20527;-76
2022/01/13 05:14:45;;;;;;;1999.90;999.90;;;2.80;99.90;;;;;;5112855;28;20207;-77
2022/01/13 05:17:33;;;;;;;1999.90;999.90;;;2.80;99.90;;;;;;5112556;28;20197;-77
2022/01/13 05:20:12;;;;;;;1999.90;999.90;;;2.80;99.90;;;;;;5112816;28;20165;-77
2022/01/13 05:22:38;;;;;;;1999.90;999.90;;;2.70;99.90;;;;;;5113047;28;20161;-77
2022/01/13 05:25:04;;;;;;;1999.90;999.90;;;2.70;99.90;;;;;;5112671;28;20533;-77
2022/01/13 05:27:30;;;;;;;1999.90;999.90;;;2.60;99.90;;;;;;5112874;28;20185;-77
2022/01/13 05:29:58;;;;;;;1999.90;999.90;;;2.60;99.90;;;;;;5112866;28;20174;-77
2022/01/13 05:32:23;;;;;;;1999.90;999.90;;;2.50;99.90;;;;;;5112792;28;20657;-77
2022/01/13 05:34:49;;;;;;;1999.90;999.90;;;2.50;99.90;;;;;;5112504;28;20169;-77
2022/01/13 05:37:15;;;;;;;1999.90;999.90;;;2.50;99.90;;;;;;5112597;28;20213;-76
2022/01/13 05:39:40;;;;;;;1999.90;999.90;;;2.40;99.90;;;;;;5112779;28;20166;-77
2022/01/13 05:42:06;;;;;;;1999.90;999.90;;;2.40;99.90;;;;;;5112694;28;20176;-77
2022/01/13 05:44:37;;;;;;;1999.90;999.90;;;2.20;99.90;;;;;;5112347;28;20168;-77
2022/01/13 05:47:03;;;;;;;1999.90;999.90;;;2.10;99.90;;;;;;5112333;28;20212;-77
2022/01/13 05:49:29;;;;;;;1999.90;999.90;;;2.00;99.90;;;;;;5112626;28;20169;-77
2022/01/13 05:51:54;;;;;;;1999.90;999.90;;;1.90;99.90;;;;;;5112579;28;20733;-77
2022/01/13 05:54:20;;;;;;;1999.90;999.90;;;1.90;99.90;;;;;;5112206;28;20227;-77
2022/01/13 05:56:45;;;;;;;1999.90;999.90;;;1.90;99.90;;;;;;5112323;28;20611;-77
2022/01/13 05:59:11;;;;;;;1999.90;999.90;;;1.80;99.90;;;;;;5112434;28;20231;-77
2022/01/13 06:01:37;;;;;;;1999.90;999.90;;;1.80;99.90;;;;;;5112375;28;20162;-77
2022/01/13 06:04:02;;;;;;;1999.90;999.90;;;1.70;99.90;;;;;;5112101;28;20161;-77
2022/01/13 06:06:28;;;;;;;1999.90;999.90;;;1.70;99.90;;;;;;5112393;28;20246;-77
2022/01/13 06:08:53;;;;;;;1999.90;999.90;;;1.90;99.90;;;;;;5112913;28;20646;-78
2022/01/13 06:11:22;;;;;;;1999.90;999.90;;;1.90;99.90;;;;;;5098391;28;20216;-77
2022/01/13 06:13:49;;;;;;;1999.90;999.90;;;2.00;99.90;;;;;;5116600;28;20635;-76
2022/01/13 06:16:15;;;;;;;1999.90;999.90;;;2.10;99.90;;;;;;5115978;28;20197;-77
2022/01/13 06:18:41;;;;;;;1999.90;999.90;;;2.00;99.90;;;;;;5115414;28;20253;-77
2022/01/13 06:21:06;;;;;;;1999.90;999.90;;;1.90;99.90;;;;;;5115402;28;20178;-78
2022/01/13 06:23:32;;;;;;;1999.90;999.90;;;1.80;99.90;;;;;;5097504;28;20173;-76
2022/01/13 06:25:58;;;;;;;1999.90;999.90;;;1.70;99.90;;;;;;5114992;28;20213;-77
2022/01/13 06:28:24;;;;;;;1999.90;999.90;;;1.60;99.90;;;;;;5117813;28;20166;-77
2022/01/13 06:30:49;;;;;;;1999.90;999.90;;;1.50;99.90;;;;;;5119796;28;20257;-77
2022/01/13 06:33:16;;;;;;;1999.90;999.90;;;1.40;99.90;;;;;;5120521;28;20205;-77
2022/01/13 06:35:42;;;;;;;1999.90;999.90;;;1.40;99.90;;;;;;5119628;28;20282;-77
2022/01/13 06:38:07;;;;;;;1999.90;999.90;;;1.40;99.90;;;;;;5119690;28;20178;-77
2022/01/13 06:40:33;;;;;;;1999.90;999.90;;;1.20;99.90;;;;;;5119898;28;20169;-77
2022/01/13 06:42:59;;;;;;;1999.90;999.90;;;1.20;99.90;;;;;;5119349;28;20166;-77
2022/01/13 06:45:24;;;;;;;1999.90;999.90;;;1.10;99.90;;;;;;5100328;28;20422;-77
2022/01/13 06:47:50;;;;;;;1999.90;999.90;;;1.00;99.90;;;;;;5119023;28;20184;-77
2022/01/13 06:50:17;;;;;;;1999.90;999.90;;;1.00;99.90;;;;;;5101253;28;20170;-77
2022/01/13 06:52:44;;;;;;;1999.90;999.90;;;0.90;99.90;;;;;;5100792;28;20174;-76
2022/01/13 06:55:10;;;;;;;1999.90;999.90;;;0.90;99.90;;;;;;5118448;28;20158;-78
2022/01/13 06:57:37;;;;;;;1999.90;999.90;;;0.90;99.90;;;;;;5120014;28;20220;-77
2022/01/13 07:00:04;;;;;;;1999.90;999.90;;;0.90;99.90;;;;;;5119238;28;20414;-76
2022/01/13 07:02:31;;;;;;;1999.90;999.90;;;0.90;99.90;;;;;;5119502;28;20173;-77
2022/01/13 07:04:56;;;;;;;1999.90;999.90;;;0.90;99.90;;;;;;5120159;28;20162;-77
2022/01/13 07:07:22;;;;;;;1999.90;999.90;;;0.90;99.90;;;;;;5119394;28;20727;-77
2022/01/13 07:09:47;;;;;;;1999.90;999.90;;;0.90;99.90;;;;;;5119847;28;20162;-77
2022/01/13 07:12:13;;;;;;;1999.90;999.90;;;0.90;99.90;;;;;;5119026;28;20166;-78
2022/01/13 07:14:39;;;;;;;1999.90;999.90;;;0.80;99.90;;;;;;5115375;28;20166;-78
2022/01/13 07:17:04;;;;;;;1999.90;999.90;;;0.80;99.90;;;;;;5115523;28;20700;-78
2022/01/13 07:19:30;;;;;;;1999.90;999.90;;;0.90;99.90;;;;;;5115633;28;20158;-78
2022/01/13 07:21:56;;;;;;;1999.90;999.90;;;0.90;99.90;;;;;;5115580;28;20249;-78
2022/01/13 07:24:22;;;;;;;1999.90;999.90;;;0.90;99.90;;;;;;5115398;28;20408;-78
2022/01/13 07:26:47;;;;;;;1999.90;999.90;;;1.00;99.90;;;;;;5097126;28;20784;-78
2022/01/13 07:29:13;;;;;;;1999.90;999.90;;;0.90;99.90;;;;;;5115278;28;20253;-78
2022/01/13 07:31:39;;;;;;;1999.90;999.90;;;1.00;99.90;;;;;;5115236;28;20165;-78
2022/01/13 07:34:08;;;;;;;1999.90;999.90;;;0.90;99.90;;;;;;5114900;28;20166;-78
2022/01/13 07:36:36;;;;;;;1999.90;999.90;;;0.90;99.90;;;;;;5115108;28;20189;-78
2022/01/13 07:39:01;;;;;;;1999.90;999.90;;;0.90;99.90;;;;;;5114840;28;20541;-78
2022/01/13 07:41:27;;;;;;;1999.90;999.90;;;0.90;99.90;;;;;;5115124;28;20162;-78
2022/01/13 07:43:55;;;;;;;1999.90;999.90;;;0.80;99.90;;;;;;5115121;28;20534;-78
2022/01/13 07:46:24;;;;;;;1999.90;999.90;;;0.80;99.90;;;;;;5096238;28;20201;-78
2022/01/13 07:48:50;;;;;;;1999.90;999.90;;;0.80;99.90;;;;;;5096732;28;20169;-78
2022/01/13 07:51:17;;;;;;;1999.90;999.90;;;0.80;99.90;;;;;;5115039;28;20740;-78
2022/01/13 07:53:42;;;;;;;1999.90;999.90;;;0.80;99.90;;;;;;5114828;28;20178;-78
2022/01/13 07:56:08;;;;;;;1999.90;999.90;;;0.80;99.90;;;;;;5114476;28;20197;-78
2022/01/13 07:58:35;;;;;;;1999.90;999.90;;;0.80;99.90;;;;;;5115049;28;20166;-78
2022/01/13 08:01:01;;;;;;;1999.90;999.90;;;0.90;99.90;;;;;;5114748;28;20402;-78
2022/01/13 08:03:26;;;;;;;1999.90;999.90;;;1.00;99.90;;;;;;5114748;28;20166;-78
2022/01/13 08:05:52;;;;;;;1999.90;999.90;;;1.00;99.90;;;;;;5114315;28;20415;-78
2022/01/13 08:08:18;;;;;;;1999.90;999.90;;;1.00;99.90;;;;;;5114654;28;20198;-77
2022/01/13 08:10:43;;;;;;;1999.90;999.90;;;1.00;99.90;;;;;;5114296;28;20643;-77
2022/01/13 08:13:09;;;;;;;1999.90;999.90;;;1.00;99.90;;;;;;5114407;28;20199;-76
2022/01/13 08:15:35;;;;;;;1999.90;999.90;;;1.00;99.90;;;;;;5113670;28;20190;-77
2022/01/13 08:20:46;;;;;;;1999.90;999.90;;;0.80;99.90;;;;;;5114210;28;20177;-77
2022/01/13 08:23:12;;;;;;;1999.90;999.90;;;0.80;99.90;;;;;;5114110;28;20166;-77
2022/01/13 08:25:38;;;;;;;1999.90;999.90;;;0.90;99.90;;;;;;5113647;28;20207;-77
2022/01/13 08:28:05;;;;;;;1999.90;999.90;;;0.80;99.90;;;;;;5114023;28;20531;-77
2022/01/13 08:30:31;;;;;;;1999.90;999.90;;;0.80;99.90;;;;;;5114007;28;20635;-77
2022/01/13 08:32:57;;;;;;;1999.90;999.90;;;0.80;99.90;;;;;;5095678;28;20173;-77
2022/01/13 08:35:23;;;;;;;1999.90;999.90;;;0.80;99.90;;;;;;5113497;28;20166;-77
2022/01/13 08:37:49;;;;;;;1999.90;999.90;;;0.70;99.90;;;;;;5113763;28;20403;-77
2022/01/13 08:40:15;;;;;;;1999.90;999.90;;;0.70;99.90;;;;;;5113759;28;20415;-77
2022/01/13 08:42:42;;;;;;;1999.90;999.90;;;0.80;99.90;;;;;;5113795;28;20162;-77
2022/01/13 08:45:10;;;;;;;1999.90;999.90;;;0.80;99.90;;;;;;5113407;28;20162;-77
2022/01/13 08:47:36;;;;;;;1999.90;999.90;;;0.70;99.90;;;;;;5113580;28;20190;-77
2022/01/13 08:50:06;;;;;;;1999.90;999.90;;;0.70;99.90;;;;;;5113075;28;20522;-77
2022/01/13 08:52:33;;;;;;;1999.90;999.90;;;0.80;99.90;;;;;;5113464;28;20539;-77
2022/01/13 08:54:59;;;;;;;1999.90;999.90;;;0.80;99.90;;;;;;5113272;28;20169;-77
2022/01/13 08:57:25;;;;;;;1999.90;999.90;;;1.00;99.90;;;;;;5113320;28;20274;-77
2022/01/13 08:59:51;;;;;;;1999.90;999.90;;;1.20;99.90;;;;;;5113423;28;20170;-77
2022/01/13 09:02:16;;;;;;;1999.90;999.90;;;1.20;99.90;;;;;;5113363;28;20166;-77
2022/01/13 09:04:42;;;;;;;1999.90;999.90;;;1.20;99.90;;;;;;5113092;28;20154;-76
2022/01/13 09:07:07;;;;;;;1999.90;999.90;;;1.10;99.90;;;;;;5113273;28;20721;-77
2022/01/13 09:09:34;;;;;;;1999.90;999.90;;;1.00;99.90;;;;;;5113283;28;20170;-77
2022/01/13 09:12:01;;;;;;;1999.90;999.90;;;1.00;99.90;;;;;;5113205;28;20571;-77
2022/01/13 09:14:28;;;;;;;1999.90;999.90;;;1.10;99.90;;;;;;5114423;28;20197;-76
2022/01/13 09:16:54;;;;;;;1999.90;999.90;;;1.10;99.90;;;;;;5116176;28;20192;-77
2022/01/13 09:19:20;;;;;;;1999.90;999.90;;;1.10;99.90;;;;;;5116493;28;20170;-78
2022/01/13 09:21:47;;;;;;;1999.90;999.90;;;1.20;99.90;;;;;;5109113;28;20208;-77
2022/01/13 09:24:16;;;;;;;1999.90;999.90;;;1.10;99.90;;;;;;5073006;28;20401;-77
2022/01/13 09:26:42;;;;;;;1999.90;999.90;;;1.10;99.90;;;;;;5054892;28;20198;-76
2022/01/13 09:29:09;;;;;;;1999.90;999.90;;;1.20;99.90;;;;;;5072970;28;20244;-77
2022/01/13 09:31:37;;;;;;;1999.90;999.90;;;1.20;99.90;;;;;;5055833;28;20270;-76
2022/01/13 09:34:03;;;;;;;1999.90;999.90;;;1.30;99.90;;;;;;5067994;28;20163;-77
2022/01/13 09:36:30;;;;;;;1999.90;999.90;;;1.40;99.90;;;;;;5053222;28;20214;-75
2022/01/13 09:38:58;;;;;;;1999.90;999.90;;;1.50;99.90;;;;;;5070824;28;20203;-76
2022/01/13 09:41:27;;;;;;;1999.90;999.90;;;1.50;99.90;;;;;;5070034;28;20719;-77
2022/01/13 09:43:54;;;;;;;1999.90;999.90;;;1.50;99.90;;;;;;5070811;28;20159;-76
2022/01/13 09:46:19;;;;;;;1999.90;999.90;;;1.40;99.90;;;;;;5069838;28;20317;-76
2022/01/13 09:48:46;;;;;;;1999.90;999.90;;;1.40;99.90;;;;;;5075844;28;20194;-76
2022/01/13 09:51:12;;;;;;;1999.90;999.90;;;1.50;99.90;;;;;;5065724;28;20181;-75
2022/01/13 09:53:38;;;;;;;1999.90;999.90;;;1.60;99.90;;;;;;5086670;28;20213;-75
2022/01/13 09:56:05;;;;;;;1999.90;999.90;;;1.70;99.90;;;;;;5067121;28;20625;-76
2022/01/13 09:58:31;;;;;;;1999.90;999.90;;;1.70;99.90;;;;;;5060097;28;20524;-76
2022/01/13 10:00:57;;;;;;;1999.90;999.90;;;1.80;99.90;;;;;;5072546;28;20163;-79
2022/01/13 10:03:26;;;;;;;1999.90;999.90;;;1.80;99.90;;;;;;5075089;28;20173;-79
2022/01/13 10:05:58;;;;;;;1999.90;999.90;;;1.90;99.90;;;;;;5071666;28;20487;-77
2022/01/13 10:08:55;;;;;;;1999.90;999.90;;;1.90;99.90;;;;;;5072145;28;20224;-77
2022/01/13 10:11:34;;;;;;;1999.90;999.90;;;2.10;99.90;;;;;;5070826;28;20179;-78
2022/01/13 10:14:02;;;;;;;1999.90;999.90;;;2.20;99.90;;;;;;5053750;28;20186;-76
2022/01/13 10:16:28;;;;;;;1999.90;999.90;;;2.10;99.90;;;;;;5070869;28;20613;-74
2022/01/13 10:18:54;;;;;;;1999.90;999.90;;;2.30;99.90;;;;;;5070144;28;20170;-78
2022/01/13 10:21:20;;;;;;;1999.90;999.90;;;2.30;99.90;;;;;;5071549;28;20401;-77
2022/01/13 10:24:11;;;;;;;1999.90;999.90;;;2.10;99.90;;;;;;5072600;28;20413;-75
2022/01/13 10:26:57;;;;;;;1999.90;999.90;;;2.10;99.90;;;;;;5074512;28;20189;-78
2022/01/13 10:29:39;;;;;;;1999.90;999.90;;;2.20;99.90;;;;;;5074361;28;20254;-78
2022/01/13 10:32:05;;;;;;;1999.90;999.90;;;2.50;99.90;;;;;;5073834;28;20262;-79
2022/01/13 10:34:32;;;;;;;1999.90;999.90;;;2.50;99.90;;;;;;5073524;28;20175;-79
2022/01/13 10:37:14;;;;;;;1999.90;999.90;;;2.60;99.90;;;;;;5056623;28;20769;-79
2022/01/13 10:39:53;;;;;;;1999.90;999.90;;;2.60;99.90;;;;;;5055934;28;20179;-79
2022/01/13 10:45:17;;;;;;;1999.90;999.90;;;2.80;99.90;;;;;;5073253;28;20591;-78
2022/01/13 10:47:50;;;;;;;1999.90;999.90;;;3.00;99.90;;;;;;5055352;28;20675;-78
2022/01/13 10:50:15;;;;;;;1999.90;999.90;;;3.10;99.90;;;;;;5073864;28;20652;-79
2022/01/13 10:52:42;;;;;;;1999.90;999.90;;;3.10;99.90;;;;;;5073787;28;20178;-78
2022/01/13 10:55:14;;;;;;;1999.90;999.90;;;3.30;99.90;;;;;;5070801;28;20167;-78
2022/01/13 10:57:42;;;;;;;1999.90;999.90;;;3.30;99.90;;;;;;5069880;28;20197;-78
2022/01/13 11:00:32;;;;;;;1999.90;999.90;;;3.20;99.90;;;;;;5069718;28;20155;-78
2022/01/13 11:03:07;;;;;;;1999.90;999.90;;;3.40;99.90;;;;;;5070069;28;20173;-78
2022/01/13 11:05:40;;;;;;;1999.90;999.90;;;3.60;99.90;;;;;;5073688;28;20561;-78
2022/01/13 11:08:08;;;;;;;1999.90;999.90;;;3.70;99.90;;;;;;5072430;28;20159;-75
2022/01/13 11:10:36;;;;;;;1999.90;999.90;;;3.80;99.90;;;;;;5069843;28;20237;-76
2022/01/13 11:13:05;;;;;;;1999.90;999.90;;;3.80;99.90;;;;;;5052095;28;20290;-77
2022/01/13 11:15:31;;;;;;;1999.90;999.90;;;3.90;99.90;;;;;;5075285;28;20664;-78
2022/01/13 11:17:58;;;;;;;1999.90;999.90;;;4.00;99.90;;;;;;5077113;28;20253;-78
2022/01/13 11:20:25;;;;;;;1999.90;999.90;;;4.20;99.90;;;;;;5076729;28;20433;-78
2022/01/13 11:22:54;;;;;;;1999.90;999.90;;;4.40;99.90;;;;;;5059210;28;20417;-78
2022/01/13 11:25:23;;;;;;;1999.90;999.90;;;4.60;99.90;;;;;;5057611;28;20410;-79
2022/01/13 11:27:51;;;;;;;1999.90;999.90;;;4.80;99.90;;;;;;5077989;28;20175;-78
2022/01/13 11:30:22;;;;;;;1999.90;999.90;;;5.20;99.90;;;;;;5077229;28;20405;-78
2022/01/13 11:32:48;;;;;;;1999.90;999.90;;;5.40;99.90;;;;;;5073086;28;20409;-77
2022/01/13 11:35:19;;;;;;;1999.90;999.90;;;5.50;99.90;;;;;;5072680;28;20421;-77
2022/01/13 11:37:45;;;;;;;1999.90;999.90;;;5.60;99.90;;;;;;5073041;28;20976;-76
2022/01/13 11:40:34;;;;;;;1999.90;999.90;;;5.60;99.90;;;;;;5055166;28;20416;-77
2022/01/13 11:43:02;;;;;;;1999.90;999.90;;;5.50;99.90;;;;;;5076813;28;20879;-78
2022/01/13 11:45:28;;;;;;;1999.90;999.90;;;5.60;99.90;;;;;;5078436;28;20408;-79
2022/01/13 11:48:16;;;;;;;1999.90;999.90;;;5.60;99.90;;;;;;5078758;28;20425;-78
2022/01/13 11:50:47;;;;;;;1999.90;999.90;;;5.80;99.90;;;;;;5079062;28;20401;-79
2022/01/13 11:53:22;;;;;;;1999.90;999.90;;;6.00;99.90;;;;;;5078940;28;20401;-78
2022/01/13 11:56:08;;;;;;;1999.90;999.90;;;6.20;99.90;;;;;;5058447;28;20455;-79
2022/01/13 11:58:43;;;;;;;1999.90;999.90;;;6.40;99.90;;;;;;5060406;28;21233;-79
2022/01/13 12:01:28;;;;;;;1999.90;999.90;;;6.80;99.90;;;;;;5060518;28;20419;-79
2022/01/13 12:04:00;;;;;;;1999.90;999.90;;;7.60;99.90;;;;;;5079185;28;20406;-79
2022/01/13 12:06:43;;;;;;;1999.90;999.90;;;8.50;99.90;;;;;;5061488;28;20808;-79
2022/01/13 12:09:11;;;;;;;1999.90;999.90;;;9.40;99.90;;;;;;5062618;28;20416;-79
2022/01/13 12:11:46;;;;;;;1999.90;999.90;;;10.40;99.90;;;;;;5062464;28;20416;-79
2022/01/13 12:14:30;;;;;;;1999.90;999.90;;;11.40;99.90;;;;;;5081457;28;20541;-79
2022/01/13 12:16:57;;;;;;;1999.90;999.90;;;12.40;99.90;;;;;;5080995;28;20973;-79
2022/01/13 12:19:27;;;;;;;1999.90;999.90;;;12.50;99.90;;;;;;5080921;28;20481;-79
2022/01/13 12:22:02;;;;;;;1999.90;999.90;;;13.10;99.90;;;;;;5061821;28;20410;-79
2022/01/13 12:24:49;;;;;;;1999.90;999.90;;;13.40;99.90;;;;;;5060932;28;20504;-79
2022/01/13 12:27:38;;;;;;;1999.90;999.90;;;14.00;99.90;;;;;;5060799;28;20786;-79
2022/01/13 12:30:08;;;;;;;1999.90;999.90;;;13.90;99.90;;;;;;5078034;28;20409;-79
2022/01/13 12:32:40;;;;;;;1999.90;999.90;;;13.60;99.90;;;;;;5060227;28;20422;-79